createdAt,value
2018-04-12T00:01:51.749Z,49.50
2018-04-12T00:04:20.601Z,49.33
2018-04-12T00:06:48.886Z,48.67
2018-04-12T00:09:17.155Z,49.10
2018-04-12T00:11:45.429Z,48.70
2018-04-12T00:14:13.717Z,47.73
2018-04-12T00:16:41.995Z,49.47
2018-04-12T00:19:10.256Z,50.53
2018-04-12T00:21:38.548Z,49.63
2018-04-12T00:24:06.812Z,50.17
2018-04-12T00:26:35.052Z,49.97
2018-04-12T00:29:04.113Z,49.27
2018-04-12T00:31:32.448Z,48.77
2018-04-12T00:34:00.745Z,50.60
2018-04-12T00:36:28.995Z,50.47
2018-04-12T00:38:58.046Z,51.87
2018-04-12T00:41:26.292Z,51.00
2018-04-12T00:43:55.404Z,50.90
2018-04-12T00:46:23.656Z,51.80
2018-04-12T00:48:52.660Z,50.67
2018-04-12T00:51:21.087Z,49.43
2018-04-12T00:54:01.157Z,50.03
2018-04-12T00:56:29.417Z,51.03
2018-04-12T00:58:57.704Z,50.40
2018-04-12T01:01:26.888Z,50.17
2018-04-12T01:03:55.136Z,49.07
2018-04-12T01:06:24.260Z,51.03
2018-04-12T01:08:52.519Z,50.10
2018-04-12T01:11:21.592Z,50.00
2018-04-12T01:13:49.845Z,49.40
2018-04-12T01:16:18.766Z,51.83
2018-04-12T01:18:47.829Z,49.77
2018-04-12T01:21:16.073Z,48.27
2018-04-12T01:23:45.113Z,49.80
2018-04-12T01:26:13.343Z,50.40
2018-04-12T01:28:42.429Z,52.00
2018-04-12T01:31:11.472Z,48.93
2018-04-12T01:33:39.721Z,48.13
2018-04-12T01:36:08.760Z,47.70
2018-04-12T01:38:37.041Z,49.20
2018-04-12T01:41:05.499Z,47.03
2018-04-12T01:43:34.518Z,46.60
2018-04-12T01:46:02.766Z,51.97
2018-04-12T01:48:31.937Z,48.23
2018-04-12T01:51:00.191Z,47.47
2018-04-12T01:53:28.473Z,47.77
2018-04-12T01:55:56.728Z,48.60
2018-04-12T01:58:24.979Z,48.87
2018-04-12T02:00:54.037Z,45.80
2018-04-12T02:03:22.338Z,47.40
2018-04-12T02:05:50.585Z,44.40
2018-04-12T02:08:18.872Z,46.40
2018-04-12T02:10:47.186Z,45.47
2018-04-12T02:13:15.480Z,42.60
2018-04-12T02:15:43.917Z,47.40
2018-04-12T02:18:12.140Z,42.30
2018-04-12T02:20:41.160Z,44.63
2018-04-12T02:23:09.465Z,45.27
2018-04-12T02:25:38.175Z,42.33
2018-04-12T02:28:06.525Z,39.47
2018-04-12T02:30:34.835Z,44.43
2018-04-12T02:33:03.085Z,40.63
2018-04-12T02:35:31.353Z,40.97
2018-04-12T02:38:00.414Z,40.07
2018-04-12T02:40:28.758Z,41.90
2018-04-12T02:42:57.869Z,42.27
2018-04-12T02:45:26.145Z,39.60
2018-04-12T02:47:54.521Z,40.03
2018-04-12T02:50:22.788Z,37.40
2018-04-12T02:52:51.207Z,40.60
2018-04-12T02:55:20.477Z,39.80
2018-04-12T02:57:48.741Z,42.77
2018-04-12T03:00:17.783Z,39.43
2018-04-12T03:02:46.057Z,38.40
2018-04-12T03:05:15.224Z,37.50
2018-04-12T03:07:43.528Z,40.90
2018-04-12T03:10:11.781Z,41.03
2018-04-12T03:12:40.044Z,37.80
2018-04-12T03:15:09.086Z,40.27
2018-04-12T03:17:37.344Z,37.70
2018-04-12T03:20:05.621Z,39.83
2018-04-12T03:22:34.654Z,38.23
2018-04-12T03:25:02.918Z,37.20
2018-04-12T03:27:31.973Z,39.20
2018-04-12T03:30:00.269Z,37.20
2018-04-12T03:32:31.066Z,36.50
2018-04-12T03:34:59.366Z,37.20
2018-04-12T03:37:28.020Z,36.63
2018-04-12T03:39:56.364Z,36.27
2018-04-12T03:42:25.443Z,35.67
2018-04-12T03:44:53.669Z,34.27
2018-04-12T03:47:21.984Z,35.43
2018-04-12T03:49:50.317Z,34.63
2018-04-12T03:52:18.621Z,34.23
2018-04-12T03:54:46.915Z,35.43
2018-04-12T03:57:15.203Z,36.87
2018-04-12T03:59:43.436Z,33.43
2018-04-12T04:02:12.457Z,34.23
2018-04-12T04:04:40.820Z,35.70
2018-04-12T04:07:09.139Z,34.47
2018-04-12T04:09:37.407Z,34.83
2018-04-12T04:12:05.716Z,35.57
2018-04-12T04:14:43.061Z,33.80
2018-04-12T04:17:23.315Z,35.30
2018-04-12T04:20:03.574Z,36.30
2018-04-12T04:22:31.817Z,34.37
2018-04-12T04:25:00.842Z,34.70
2018-04-12T04:27:29.213Z,36.23
2018-04-12T04:29:58.241Z,37.57
2018-04-12T04:32:26.510Z,35.60
2018-04-12T04:34:55.505Z,34.90
2018-04-12T04:37:23.745Z,37.57
2018-04-12T04:39:52.956Z,35.03
2018-04-12T04:42:21.163Z,35.93
2018-04-12T04:44:49.412Z,36.97
2018-04-12T04:47:17.680Z,36.40
2018-04-12T04:49:45.961Z,34.10
2018-04-12T04:52:14.337Z,35.60
2018-04-12T04:54:43.399Z,34.10
2018-04-12T04:57:11.633Z,37.03
2018-04-12T04:59:40.700Z,33.97
2018-04-12T05:02:09.064Z,35.60
2018-04-12T05:04:37.316Z,37.37
2018-04-12T05:07:05.593Z,36.50
2018-04-12T05:09:34.724Z,36.13
2018-04-12T05:12:04.731Z,36.03
2018-04-12T05:14:33.063Z,36.60
2018-04-12T05:17:01.353Z,35.13
2018-04-12T05:19:30.060Z,36.93
2018-04-12T05:21:58.409Z,37.20
2018-04-12T05:24:26.698Z,37.33
2018-04-12T05:26:54.977Z,36.47
2018-04-12T05:29:23.214Z,36.40
2018-04-12T05:31:51.501Z,37.07
2018-04-12T05:34:19.784Z,36.43
2018-04-12T05:36:48.060Z,37.23
2018-04-12T05:39:16.347Z,37.20
2018-04-12T05:41:44.604Z,39.20
2018-04-12T05:44:12.887Z,37.80
2018-04-12T05:46:42.104Z,37.90
2018-04-12T05:49:10.408Z,38.07
2018-04-12T05:51:38.774Z,36.47
2018-04-12T05:54:07.179Z,37.97
2018-04-12T05:56:35.440Z,36.90
2018-04-12T05:59:03.684Z,37.67
2018-04-12T06:01:32.956Z,35.63
2018-04-12T06:04:01.292Z,39.47
2018-04-12T06:06:29.560Z,38.60
2018-04-12T06:08:57.810Z,36.87
2018-04-12T06:11:26.872Z,39.00
2018-04-12T06:13:55.148Z,37.40
2018-04-12T06:16:24.241Z,37.67
2018-04-12T06:18:52.480Z,36.30
2018-04-12T06:21:20.836Z,39.73
2018-04-12T06:23:49.049Z,37.00
2018-04-12T06:26:17.356Z,36.17
2018-04-12T06:28:45.680Z,39.03
2018-04-12T06:31:15.525Z,39.10
2018-04-12T06:33:44.550Z,37.73
2018-04-12T06:36:12.942Z,39.30
2018-04-12T06:38:41.193Z,39.50
2018-04-12T06:41:09.469Z,41.80
2018-04-12T06:43:38.501Z,38.40
2018-04-12T06:46:06.788Z,38.37
2018-04-12T06:48:36.571Z,41.27
2018-04-12T06:51:04.840Z,37.13
2018-04-12T06:53:33.980Z,38.30
2018-04-12T06:56:03.148Z,42.23
2018-04-12T06:58:31.393Z,41.87
2018-04-12T07:00:59.688Z,43.07
2018-04-12T07:03:28.886Z,40.60
2018-04-12T07:05:57.998Z,42.37
2018-04-12T07:08:27.009Z,43.10
2018-04-12T07:10:55.900Z,41.97
2018-04-12T07:13:24.963Z,40.87
2018-04-12T07:15:53.237Z,42.10
2018-04-12T07:18:23.941Z,43.50
2018-04-12T07:20:52.248Z,43.97
2018-04-12T07:23:20.660Z,44.20
2018-04-12T07:25:49.701Z,43.37
2018-04-12T07:28:17.980Z,43.13
2018-04-12T07:30:46.288Z,44.33
2018-04-12T07:33:14.585Z,43.27
2018-04-12T07:35:42.844Z,44.87
2018-04-12T07:38:11.089Z,44.97
2018-04-12T07:40:39.365Z,41.83
2018-04-12T07:43:07.657Z,47.10
2018-04-12T07:45:36.753Z,44.43
2018-04-12T07:48:04.989Z,46.30
2018-04-12T07:50:34.152Z,45.93
2018-04-12T07:53:02.571Z,46.97
2018-04-12T07:55:30.840Z,45.70
2018-04-12T07:57:59.076Z,43.37
2018-04-12T08:00:27.369Z,42.97
2018-04-12T08:02:55.599Z,41.83
2018-04-12T08:05:24.633Z,43.80
2018-04-12T08:07:52.990Z,44.60
2018-04-12T08:10:22.667Z,44.20
2018-04-12T08:12:50.946Z,43.93
2018-04-12T08:15:19.211Z,44.17
2018-04-12T08:17:47.659Z,45.10
2018-04-12T08:20:16.697Z,45.77
2018-04-12T08:22:45.019Z,43.00
2018-04-12T08:25:13.368Z,43.03
2018-04-12T08:27:42.116Z,45.00
2018-04-12T08:30:11.285Z,41.77
2018-04-12T08:32:39.636Z,45.87
2018-04-12T08:35:08.740Z,47.37
2018-04-12T08:37:36.964Z,45.13
2018-04-12T08:40:05.278Z,45.80
2018-04-12T08:42:34.393Z,42.50
2018-04-12T08:45:04.272Z,47.33
2018-04-12T08:47:33.362Z,47.00
2018-04-12T08:50:03.092Z,42.27
2018-04-12T08:52:31.369Z,42.90
2018-04-12T08:54:59.612Z,44.17
2018-04-12T08:57:27.882Z,43.30
2018-04-12T08:59:56.191Z,43.03
2018-04-12T09:02:25.249Z,41.03
2018-04-12T09:04:53.552Z,43.63
2018-04-12T09:07:21.841Z,42.33
2018-04-12T09:09:50.144Z,42.70
2018-04-12T09:12:19.173Z,41.50
2018-04-12T09:14:47.447Z,42.03
2018-04-12T09:17:15.724Z,41.40
2018-04-12T09:19:44.018Z,40.20
2018-04-12T09:22:12.289Z,42.80
2018-04-12T09:24:40.590Z,41.77
2018-04-12T09:27:09.030Z,40.97
2018-04-12T09:29:37.409Z,42.67
2018-04-12T09:32:05.828Z,41.70
2018-04-12T09:34:34.089Z,39.60
2018-04-12T09:37:02.349Z,38.50
2018-04-12T09:39:31.562Z,40.53
2018-04-12T09:41:59.820Z,37.50
2018-04-12T09:44:28.098Z,38.50
2018-04-12T09:46:56.349Z,38.63
2018-04-12T09:49:24.668Z,37.03
2018-04-12T09:51:52.891Z,37.33
2018-04-12T09:54:21.174Z,37.47
2018-04-12T09:56:49.490Z,37.90
2018-04-12T09:59:18.484Z,39.67
2018-04-12T10:01:52.329Z,37.17
2018-04-12T10:04:28.035Z,36.87
2018-04-12T10:07:12.132Z,37.70
2018-04-12T10:09:41.149Z,37.13
2018-04-12T10:12:09.429Z,37.73
2018-04-12T10:14:37.672Z,35.33
2018-04-12T10:17:06.736Z,36.30
2018-04-12T10:19:34.980Z,37.20
2018-04-12T10:22:03.236Z,34.77
2018-04-12T10:24:32.299Z,35.87
2018-04-12T10:27:00.904Z,36.53
2018-04-12T10:29:29.938Z,35.87
2018-04-12T10:31:58.202Z,33.80
2018-04-12T10:34:26.664Z,35.30
2018-04-12T10:36:54.921Z,33.50
2018-04-12T10:39:23.230Z,36.63
2018-04-12T10:41:51.439Z,34.03
2018-04-12T10:44:19.720Z,35.63
2018-04-12T10:46:48.052Z,35.53
2018-04-12T10:49:16.328Z,34.20
2018-04-12T10:51:45.416Z,34.00
2018-04-12T10:54:13.671Z,35.47
2018-04-12T10:56:41.912Z,35.13
2018-04-12T10:59:10.208Z,33.07
2018-04-12T11:01:38.517Z,34.97
2018-04-12T11:04:06.850Z,36.73
2018-04-12T11:06:35.104Z,34.80
2018-04-12T11:09:03.457Z,33.10
2018-04-12T11:11:31.769Z,35.17
2018-04-12T11:14:00.003Z,34.47
2018-04-12T11:16:29.007Z,34.20
2018-04-12T11:18:57.362Z,36.93
2018-04-12T11:21:27.632Z,36.13
2018-04-12T11:23:55.881Z,35.30
2018-04-12T11:26:28.157Z,34.40
2018-04-12T11:28:57.182Z,34.63
2018-04-12T11:31:26.315Z,36.30
2018-04-12T11:36:29.457Z,32.97
2018-04-12T11:38:57.694Z,36.10
2018-04-12T11:41:25.988Z,36.87
2018-04-12T11:43:54.975Z,34.77
2018-04-12T11:46:23.279Z,35.53
2018-04-12T11:48:51.566Z,35.10
2018-04-12T11:51:20.579Z,35.87
2018-04-12T11:53:49.636Z,33.67
2018-04-12T11:56:17.890Z,34.20
2018-04-12T11:58:46.198Z,35.50
2018-04-12T12:01:14.441Z,33.90
2018-04-12T12:03:42.908Z,34.83
2018-04-12T12:06:11.945Z,34.80
2018-04-12T12:08:40.297Z,35.30
2018-04-12T12:11:08.743Z,34.10
2018-04-12T12:13:37.059Z,33.47
2018-04-12T12:16:05.343Z,25.83
2018-04-12T12:18:34.406Z,31.40
2018-04-12T12:21:02.704Z,32.67
2018-04-12T12:23:31.746Z,32.07
2018-04-12T12:26:00.008Z,32.67
2018-04-12T12:28:29.124Z,31.43
2018-04-12T12:30:57.310Z,33.40
2018-04-12T12:33:25.593Z,32.30
2018-04-12T12:35:53.860Z,32.27
2018-04-12T12:38:23.671Z,31.80
2018-04-12T12:40:51.996Z,32.07
2018-04-12T12:43:20.705Z,32.83
2018-04-12T12:45:49.752Z,31.60
2018-04-12T12:48:18.125Z,32.90
2018-04-12T12:50:50.606Z,30.00
2018-04-12T12:53:18.897Z,31.37
2018-04-12T12:55:47.271Z,31.90
2018-04-12T12:58:15.672Z,32.43
2018-04-12T13:00:43.904Z,31.17
2018-04-12T13:03:12.993Z,29.47
2018-04-12T13:05:42.002Z,30.87
2018-04-12T13:08:11.032Z,25.77
2018-04-12T13:10:39.569Z,29.97
2018-04-12T13:13:07.886Z,30.47
2018-04-12T13:15:36.337Z,28.47
2018-04-12T13:18:04.725Z,30.13
2018-04-12T13:20:32.997Z,31.70
2018-04-12T13:23:01.255Z,26.87
2018-04-12T13:25:29.556Z,29.30
2018-04-12T13:27:57.844Z,29.30
2018-04-12T13:30:26.240Z,30.53
2018-04-12T13:32:55.272Z,30.20
2018-04-12T13:35:23.526Z,29.60
2018-04-12T13:37:52.576Z,30.80
2018-04-12T13:40:20.864Z,28.87
2018-04-12T13:42:49.145Z,30.20
2018-04-12T13:45:18.173Z,30.13
2018-04-12T13:47:48.195Z,29.60
2018-04-12T13:50:17.280Z,28.67
2018-04-12T13:52:47.232Z,29.53
2018-04-12T13:55:15.586Z,27.80
2018-04-12T13:57:43.777Z,29.37
2018-04-12T14:00:12.828Z,29.10
2018-04-12T14:02:41.085Z,28.13
2018-04-12T14:05:09.372Z,28.30
2018-04-12T14:07:37.626Z,28.17
2018-04-12T14:10:05.879Z,28.40
2018-04-12T14:12:34.184Z,28.57
2018-04-12T14:15:02.489Z,28.50
2018-04-12T14:17:31.485Z,26.77
2018-04-12T14:19:59.760Z,27.53
2018-04-12T14:22:28.056Z,27.57
2018-04-12T14:24:56.601Z,30.97
2018-04-12T14:27:25.634Z,29.00
2018-04-12T14:29:53.973Z,29.00
2018-04-12T14:32:23.021Z,27.50
2018-04-12T14:34:51.305Z,29.10
2018-04-12T14:37:19.601Z,29.77
2018-04-12T14:39:48.008Z,27.13
2018-04-12T14:42:16.270Z,28.40
2018-04-12T14:44:44.630Z,27.47
2018-04-12T14:47:12.900Z,28.40
2018-04-12T14:49:41.195Z,29.70
2018-04-12T14:52:09.448Z,28.10
2018-04-12T14:54:39.806Z,28.00
2018-04-12T14:57:08.109Z,27.73
2018-04-12T14:59:36.352Z,27.60
2018-04-12T15:02:04.602Z,27.60
2018-04-12T15:04:34.652Z,27.47
2018-04-12T15:07:02.954Z,30.00
2018-04-12T15:09:32.230Z,28.00
2018-04-12T15:12:01.300Z,29.70
2018-04-12T15:14:30.357Z,29.23
2018-04-12T15:16:58.997Z,29.70
2018-04-12T15:19:27.300Z,29.60
2018-04-12T15:21:55.587Z,30.60
2018-04-12T15:24:23.968Z,30.10
2018-04-12T15:26:52.235Z,29.30
2018-04-12T15:29:21.294Z,28.63
2018-04-12T15:31:49.623Z,31.40
2018-04-12T15:34:17.893Z,31.80
2018-04-12T15:36:46.144Z,31.43
2018-04-12T15:39:14.583Z,32.20
2018-04-12T15:41:42.850Z,31.40
2018-04-12T15:44:11.700Z,30.83
2018-04-12T15:46:40.106Z,32.80
2018-04-12T15:49:08.369Z,31.93
2018-04-12T15:51:38.380Z,33.23
2018-04-12T15:54:06.656Z,31.53
2018-04-12T15:56:34.921Z,29.87
2018-04-12T15:59:03.189Z,32.87
2018-04-12T16:01:31.517Z,32.73
2018-04-12T16:04:00.512Z,33.10
2018-04-12T16:06:29.593Z,32.70
2018-04-12T16:08:57.883Z,32.70
2018-04-12T16:11:26.109Z,33.60
2018-04-12T16:13:54.396Z,35.77
2018-04-12T16:16:22.633Z,34.57
2018-04-12T16:18:51.812Z,32.73
2018-04-12T16:21:20.682Z,34.87
2018-04-12T16:23:48.987Z,34.47
2018-04-12T16:26:17.272Z,36.30
2018-04-12T16:28:45.527Z,33.27
2018-04-12T16:31:14.005Z,34.63
2018-04-12T16:33:42.279Z,34.97
2018-04-12T16:36:10.536Z,32.63
2018-04-12T16:38:38.808Z,33.00
2018-04-12T16:41:07.149Z,32.73
2018-04-12T16:43:35.382Z,35.20
2018-04-12T16:46:03.671Z,36.30
2018-04-12T16:48:31.951Z,34.13
2018-04-12T16:51:00.248Z,34.77
2018-04-12T16:53:28.496Z,34.63
2018-04-12T16:55:57.511Z,33.40
2018-04-12T16:58:25.785Z,33.50
2018-04-12T17:00:54.096Z,33.00
2018-04-12T17:03:22.359Z,33.30
2018-04-12T17:05:50.663Z,34.33
2018-04-12T17:08:18.909Z,33.17
2018-04-12T17:10:47.192Z,33.43
2018-04-12T17:13:15.460Z,35.70
2018-04-12T17:15:44.515Z,35.10
2018-04-12T17:18:12.797Z,33.50
2018-04-12T17:20:41.053Z,35.13
2018-04-12T17:23:10.307Z,32.50
2018-04-12T17:25:39.814Z,33.73
2018-04-12T17:28:08.829Z,34.50
2018-04-12T17:30:37.896Z,33.50
2018-04-12T17:33:06.179Z,34.80
2018-04-12T17:35:34.501Z,34.67
2018-04-12T17:38:02.836Z,33.57
2018-04-12T17:40:31.079Z,32.30
2018-04-12T17:42:59.422Z,34.37
2018-04-12T17:45:27.653Z,33.43
2018-04-12T17:47:56.269Z,31.90
2018-04-12T17:50:24.484Z,33.33
2018-04-12T17:52:52.767Z,33.77
2018-04-12T17:55:21.038Z,34.00
2018-04-12T17:57:49.448Z,37.00
2018-04-12T18:00:17.726Z,31.90
2018-04-12T18:02:45.988Z,35.00
2018-04-12T18:05:14.271Z,35.03
2018-04-12T18:07:42.565Z,36.10
2018-04-12T18:10:10.912Z,35.20
2018-04-12T18:12:39.214Z,35.63
2018-04-12T18:15:07.432Z,34.67
2018-04-12T18:17:35.691Z,35.57
2018-04-12T18:20:04.032Z,34.93
2018-04-12T18:22:32.292Z,35.08
2018-04-12T18:25:00.634Z,34.77
2018-04-12T18:27:28.905Z,33.83
2018-04-12T18:29:57.189Z,35.87
2018-04-12T18:32:25.475Z,35.47
2018-04-12T18:34:53.724Z,35.50
2018-04-12T18:37:22.803Z,34.23
2018-04-12T18:39:51.074Z,35.93
2018-04-12T18:42:19.368Z,32.53
2018-04-12T18:44:48.378Z,36.50
2018-04-12T18:47:17.425Z,34.40
2018-04-12T18:49:45.842Z,32.60
2018-04-12T18:52:14.129Z,32.87
2018-04-12T18:54:42.396Z,33.03
2018-04-12T18:57:10.710Z,34.93
2018-04-12T18:59:39.138Z,34.67
2018-04-12T19:02:07.411Z,34.33
2018-04-12T19:04:35.735Z,34.43
2018-04-12T19:07:03.972Z,34.13
2018-04-12T19:09:32.292Z,31.20
2018-04-12T19:12:00.556Z,32.00
2018-04-12T19:14:28.843Z,30.90
2018-04-12T19:16:57.111Z,29.93
2018-04-12T19:19:27.470Z,28.33
2018-04-12T19:21:55.760Z,28.10
2018-04-12T19:24:24.038Z,29.47
2018-04-12T19:26:52.278Z,29.07
2018-04-12T19:29:20.592Z,28.13
2018-04-12T19:31:48.868Z,30.47
2018-04-12T19:34:17.145Z,29.30
2018-04-12T19:36:46.393Z,28.63
2018-04-12T19:39:14.767Z,23.90
2018-04-12T19:41:43.849Z,21.10
2018-04-12T19:44:14.700Z,22.87
2018-04-12T19:46:43.769Z,24.20
2018-04-12T19:49:12.074Z,22.60
2018-04-12T19:51:41.106Z,22.43
2018-04-12T19:54:09.371Z,28.00
2018-04-12T19:56:37.642Z,25.47
2018-04-12T19:59:05.922Z,26.97
2018-04-12T20:01:34.976Z,25.00
2018-04-12T20:04:03.239Z,24.77
2018-04-12T20:06:31.532Z,23.97
2018-04-12T20:08:59.781Z,25.00
2018-04-12T20:11:28.078Z,24.57
2018-04-12T20:13:56.683Z,23.43
2018-04-12T20:16:24.918Z,23.50
2018-04-12T20:18:53.209Z,22.10
2018-04-12T20:21:21.475Z,22.23
2018-04-12T20:23:50.500Z,22.73
2018-04-12T20:26:19.382Z,21.50
2018-04-12T20:28:47.684Z,20.70
2018-04-12T20:31:15.961Z,22.13
2018-04-12T20:33:44.233Z,25.43
2018-04-12T20:36:12.517Z,22.70
2018-04-12T20:38:40.819Z,22.97
2018-04-12T20:41:09.121Z,24.97
2018-04-12T20:43:37.452Z,24.60
2018-04-12T20:46:05.742Z,25.17
2018-04-12T20:48:34.743Z,25.60
2018-04-12T20:51:03.052Z,26.40
2018-04-12T20:53:31.377Z,26.67
2018-04-12T20:56:01.377Z,26.70
2018-04-12T20:58:30.411Z,26.37
2018-04-12T21:00:58.654Z,25.90
2018-04-12T21:03:27.693Z,25.40
2018-04-12T21:05:55.960Z,29.20
2018-04-12T21:08:24.384Z,27.53
2018-04-12T21:10:52.725Z,26.50
2018-04-12T21:13:21.720Z,26.97
2018-04-12T21:15:50.021Z,26.60
2018-04-12T21:18:18.313Z,24.40
2018-04-12T21:20:47.381Z,23.57
2018-04-12T21:23:15.642Z,21.80
2018-04-12T21:25:44.689Z,19.80
2018-04-12T21:28:14.331Z,21.90
2018-04-12T21:30:42.585Z,20.77
2018-04-12T21:33:10.896Z,21.83
2018-04-12T21:35:39.272Z,20.53
2018-04-12T21:38:07.600Z,18.80
2018-04-12T21:40:35.940Z,18.10
2018-04-12T21:43:04.684Z,16.70
2018-04-12T21:45:32.978Z,16.90
2018-04-12T21:48:01.742Z,16.30
2018-04-12T21:50:30.008Z,16.63
2018-04-12T21:52:59.096Z,16.23
2018-04-12T21:55:28.113Z,13.60
2018-04-12T21:57:57.119Z,14.07
2018-04-12T22:00:25.436Z,13.63
2018-04-12T22:02:53.696Z,14.40
2018-04-12T22:05:21.947Z,13.73
2018-04-12T22:07:50.988Z,14.77
2018-04-12T22:10:20.041Z,13.43
2018-04-12T22:12:48.329Z,14.43
2018-04-12T22:15:17.379Z,14.77
2018-04-12T22:17:45.640Z,15.17
2018-04-12T22:20:13.885Z,14.10
2018-04-12T22:22:42.151Z,14.27
2018-04-12T22:25:11.176Z,13.80
2018-04-12T22:27:39.618Z,13.67
2018-04-12T22:30:08.881Z,15.33
2018-04-12T22:32:37.119Z,14.80
2018-04-12T22:35:06.244Z,14.97
2018-04-12T22:37:34.531Z,16.87
2018-04-12T22:40:02.774Z,17.33
2018-04-12T22:42:31.962Z,16.20
2018-04-12T22:45:00.448Z,16.10
2018-04-12T22:47:28.670Z,17.97
2018-04-12T22:49:57.007Z,16.47
2018-04-12T22:52:25.289Z,18.37
2018-04-12T22:54:54.266Z,16.43
2018-04-12T22:57:22.526Z,18.10
2018-04-12T22:59:50.791Z,17.53
2018-04-12T23:02:19.093Z,16.80
2018-04-12T23:04:47.360Z,16.90
2018-04-12T23:07:15.676Z,18.17
2018-04-12T23:09:43.934Z,20.10
2018-04-12T23:12:12.194Z,20.00
2018-04-12T23:14:40.471Z,17.33
2018-04-12T23:17:08.752Z,16.97
2018-04-12T23:19:37.245Z,18.50
2018-04-12T23:22:05.512Z,19.57
2018-04-12T23:24:34.893Z,18.50
2018-04-12T23:27:03.151Z,16.70
2018-04-12T23:29:31.440Z,15.97
2018-04-12T23:32:00.462Z,16.50
2018-04-12T23:34:28.760Z,15.70
2018-04-12T23:36:57.134Z,16.47
2018-04-12T23:39:25.546Z,17.67
2018-04-12T23:41:53.868Z,18.63
2018-04-12T23:44:22.129Z,16.63
2018-04-12T23:46:50.402Z,18.33
2018-04-12T23:49:18.767Z,20.67
2018-04-12T23:51:48.037Z,22.97
2018-04-12T23:54:17.085Z,21.03
2018-04-12T23:56:45.365Z,18.50
2018-04-12T23:59:13.618Z,18.27
